Time;durP1;ratioP1;P1;durP2;ratioP2;P2;SDS_P1;SDS_P2;PMS_P1;PMS_P2;Temp;Humidity;BMP_temperature;BMP_pressure;BME280_temperature;BME280_humidity;BME280_pressure;Samples;Min_cycle;Max_cycle;Signal;HPM_P1;HPM_P2
2023/08/14 00:01:07;;;;;;;3.70;2.90;;;17.00;99.90;;;;;;5104675;28;20183;-62
2023/08/14 00:03:32;;;;;;;4.03;3.10;;;17.10;99.90;;;;;;5104171;28;21013;-63
2023/08/14 00:05:58;;;;;;;4.00;3.47;;;17.10;99.90;;;;;;5104415;28;20262;-62
2023/08/14 00:08:24;;;;;;;8.33;3.13;;;17.00;99.90;;;;;;5103637;28;20275;-63
2023/08/14 00:10:50;;;;;;;4.47;3.13;;;17.00;99.90;;;;;;5104845;28;20172;-63
2023/08/14 00:13:19;;;;;;;7.10;3.00;;;17.00;99.90;;;;;;5104733;28;20473;-63
2023/08/14 00:15:45;;;;;;;3.10;2.80;;;17.00;99.90;;;;;;5104109;28;20232;-63
2023/08/14 00:18:10;;;;;;;5.90;3.37;;;17.00;99.90;;;;;;5104360;28;20421;-62
2023/08/14 00:20:36;;;;;;;3.73;2.90;;;17.00;99.90;;;;;;5103752;28;20200;-63
2023/08/14 00:23:02;;;;;;;5.40;3.37;;;17.10;99.90;;;;;;5105053;28;20176;-62
2023/08/14 00:25:27;;;;;;;5.17;3.00;;;17.20;99.90;;;;;;5103385;28;20806;-63
2023/08/14 00:27:53;;;;;;;4.73;3.40;;;17.20;99.90;;;;;;5104043;28;20207;-64
2023/08/14 00:30:19;;;;;;;3.93;3.00;;;17.30;99.90;;;;;;5123741;27;20182;-63
2023/08/14 00:32:45;;;;;;;7.20;3.40;;;17.40;99.90;;;;;;5124251;27;20417;-63
2023/08/14 00:35:11;;;;;;;8.07;3.80;;;17.40;99.90;;;;;;5124609;27;20436;-63
2023/08/14 00:37:43;;;;;;;4.53;3.30;;;17.30;99.90;;;;;;5123118;27;20206;-63
2023/08/14 00:40:10;;;;;;;8.20;3.63;;;17.40;99.90;;;;;;5124762;27;20585;-63
2023/08/14 00:42:38;;;;;;;4.50;3.10;;;17.40;99.90;;;;;;5123678;27;20466;-63
2023/08/14 00:45:05;;;;;;;6.20;3.87;;;17.30;99.90;;;;;;5118309;27;21088;-62
2023/08/14 00:47:32;;;;;;;5.40;3.43;;;17.30;99.90;;;;;;5102743;28;20468;-63
2023/08/14 00:49:58;;;;;;;6.77;3.30;;;17.20;99.90;;;;;;5103215;28;20430;-63
2023/08/14 00:52:26;;;;;;;3.70;2.70;;;17.10;99.90;;;;;;5102837;28;20840;-63
2023/08/14 00:54:52;;;;;;;5.30;3.47;;;17.00;99.90;;;;;;5084895;28;20171;-63
2023/08/14 00:57:18;;;;;;;6.53;3.20;;;17.00;99.90;;;;;;5085200;28;20460;-63
2023/08/14 00:59:43;;;;;;;5.93;3.83;;;17.00;99.90;;;;;;5101483;28;20525;-63
2023/08/14 01:02:09;;;;;;;4.70;3.50;;;16.90;99.90;;;;;;5103638;28;20186;-63
2023/08/14 01:04:35;;;;;;;7.60;4.00;;;16.90;99.90;;;;;;5103271;28;20203;-63
2023/08/14 01:07:01;;;;;;;4.17;3.43;;;16.90;99.90;;;;;;5102625;28;20218;-63
2023/08/14 01:09:26;;;;;;;4.33;3.93;;;16.80;99.90;;;;;;5085837;28;20538;-63
2023/08/14 01:11:57;;;;;;;3.70;3.07;;;16.80;99.90;;;;;;5102990;28;20175;-63
2023/08/14 01:14:29;;;;;;;5.37;3.57;;;16.80;99.90;;;;;;5103855;28;20203;-63
2023/08/14 01:17:00;;;;;;;4.97;3.77;;;16.80;99.90;;;;;;5101917;28;20931;-62
2023/08/14 01:19:31;;;;;;;3.47;2.90;;;16.80;99.90;;;;;;5103749;28;21484;-63
2023/08/14 01:22:20;;;;;;;4.50;3.10;;;16.80;99.90;;;;;;5102678;28;20814;-63
2023/08/14 01:25:14;;;;;;;3.80;3.40;;;16.90;99.90;;;;;;5084495;28;20418;-63
2023/08/14 01:27:40;;;;;;;4.87;3.37;;;16.90;99.90;;;;;;5102046;28;20465;-63
2023/08/14 01:30:07;;;;;;;5.90;3.50;;;16.80;99.90;;;;;;5120372;27;20448;-63
2023/08/14 01:32:33;;;;;;;5.90;4.03;;;16.70;99.90;;;;;;5105081;27;20424;-62
2023/08/14 01:34:59;;;;;;;4.20;3.37;;;16.70;99.90;;;;;;5123819;27;20405;-63
2023/08/14 01:37:46;;;;;;;5.13;3.60;;;16.70;99.90;;;;;;5122621;27;20298;-63
2023/08/14 01:40:57;;;;;;;4.00;3.50;;;16.70;99.90;;;;;;5123652;27;20427;-63
2023/08/14 01:43:29;;;;;;;6.97;3.67;;;16.80;99.90;;;;;;5090924;27;20433;-62
2023/08/14 01:45:56;;;;;;;5.50;3.63;;;16.70;99.90;;;;;;5087894;28;20415;-63
2023/08/14 01:48:24;;;;;;;5.30;3.47;;;16.70;99.90;;;;;;5081960;28;21018;-62
2023/08/14 01:50:52;;;;;;;7.03;3.83;;;16.70;99.90;;;;;;5080803;28;20454;-63
2023/08/14 01:53:18;;;;;;;5.47;3.60;;;16.60;99.90;;;;;;5082220;28;20821;-63
2023/08/14 01:55:44;;;;;;;6.07;4.30;;;16.60;99.90;;;;;;5081681;28;20510;-63
2023/08/14 01:58:10;;;;;;;6.73;3.50;;;16.60;99.90;;;;;;5081739;28;20458;-63
2023/08/14 02:00:37;;;;;;;5.60;3.80;;;16.70;99.90;;;;;;5081456;28;20466;-63
2023/08/14 02:03:03;;;;;;;10.10;4.80;;;16.60;99.90;;;;;;5081762;28;20199;-63
2023/08/14 02:05:29;;;;;;;7.40;3.67;;;16.60;99.90;;;;;;5081909;28;20410;-63
2023/08/14 02:07:55;;;;;;;5.73;3.90;;;16.60;99.90;;;;;;5081084;28;20468;-63
2023/08/14 02:10:21;;;;;;;3.90;3.23;;;16.60;99.90;;;;;;5082205;28;20290;-63
2023/08/14 02:12:46;;;;;;;3.90;2.97;;;16.60;99.90;;;;;;5081627;28;20410;-63
2023/08/14 02:15:12;;;;;;;6.00;3.90;;;16.60;99.90;;;;;;5082014;28;20425;-63
2023/08/14 02:17:38;;;;;;;3.63;3.33;;;16.60;99.90;;;;;;5081340;28;20192;-63
2023/08/14 02:20:04;;;;;;;5.03;3.70;;;16.70;99.90;;;;;;5081649;28;20279;-63
2023/08/14 02:22:30;;;;;;;5.03;3.60;;;16.70;99.90;;;;;;5081725;28;20173;-63
2023/08/14 02:24:56;;;;;;;6.17;3.20;;;16.60;99.90;;;;;;5080988;28;21380;-63
2023/08/14 02:27:21;;;;;;;3.73;3.10;;;16.60;99.90;;;;;;5081471;28;20219;-63
2023/08/14 02:29:47;;;;;;;6.37;3.37;;;16.50;99.90;;;;;;5111145;27;20184;-62
2023/08/14 02:32:13;;;;;;;8.17;4.00;;;16.50;99.90;;;;;;5122496;27;20183;-62
2023/08/14 02:34:47;;;;;;;4.13;3.60;;;16.60;99.90;;;;;;5121917;27;20290;-63
2023/08/14 02:37:13;;;;;;;5.47;3.50;;;16.70;99.90;;;;;;5121795;27;20187;-62
2023/08/14 02:39:40;;;;;;;5.43;3.80;;;16.70;99.90;;;;;;5104268;27;20450;-63
2023/08/14 02:42:06;;;;;;;6.93;3.80;;;16.60;99.90;;;;;;5121536;27;20417;-63
2023/08/14 02:44:32;;;;;;;4.23;3.50;;;16.50;99.90;;;;;;5120341;27;20439;-63
2023/08/14 02:46:58;;;;;;;4.20;3.30;;;16.40;99.90;;;;;;5100362;28;20461;-63
2023/08/14 02:49:24;;;;;;;6.20;2.83;;;16.30;99.90;;;;;;5102028;28;20424;-62
2023/08/14 02:51:50;;;;;;;5.20;3.83;;;16.30;99.90;;;;;;5099849;28;21322;-62
2023/08/14 02:54:16;;;;;;;5.77;3.40;;;16.30;99.90;;;;;;5101534;28;20442;-64
2023/08/14 02:56:41;;;;;;;4.63;3.20;;;16.30;99.90;;;;;;5100654;28;20168;-63
2023/08/14 02:59:07;;;;;;;5.40;3.70;;;16.30;99.90;;;;;;5100361;28;20180;-63
2023/08/14 03:01:33;;;;;;;5.27;3.73;;;16.30;99.90;;;;;;5101840;28;20214;-63
2023/08/14 03:03:59;;;;;;;5.73;4.00;;;16.20;99.90;;;;;;5100664;28;20183;-62
2023/08/14 03:06:24;;;;;;;7.37;3.83;;;16.20;99.90;;;;;;5100757;28;20172;-63
2023/08/14 03:08:52;;;;;;;4.83;3.93;;;16.10;99.90;;;;;;5101165;28;20187;-63
2023/08/14 03:11:17;;;;;;;5.13;3.60;;;16.00;99.90;;;;;;5101560;28;20786;-62
2023/08/14 03:13:43;;;;;;;5.30;4.00;;;16.00;99.90;;;;;;5100777;28;20422;-63
2023/08/14 03:16:09;;;;;;;3.90;3.60;;;16.10;99.90;;;;;;5100513;28;20207;-63
2023/08/14 03:18:34;;;;;;;4.63;3.30;;;16.20;99.90;;;;;;5100951;28;20203;-63
2023/08/14 03:21:00;;;;;;;4.40;4.00;;;16.20;99.90;;;;;;5100411;28;20943;-62
2023/08/14 03:23:26;;;;;;;3.93;3.37;;;16.20;99.90;;;;;;5101530;28;20210;-63
2023/08/14 03:25:51;;;;;;;4.23;3.80;;;16.30;99.90;;;;;;5101076;28;20279;-62
2023/08/14 03:28:17;;;;;;;4.03;3.03;;;16.20;99.90;;;;;;5101813;28;20199;-62
2023/08/14 03:30:43;;;;;;;6.00;3.87;;;16.10;99.90;;;;;;5121710;28;20182;-62
2023/08/14 03:33:09;;;;;;;6.23;3.67;;;16.20;99.90;;;;;;5121011;28;20253;-62
2023/08/14 03:35:36;;;;;;;5.63;3.73;;;16.20;99.90;;;;;;5121134;28;20419;-62
2023/08/14 03:38:01;;;;;;;6.80;3.20;;;16.20;99.90;;;;;;5120859;28;20178;-62
2023/08/14 03:40:27;;;;;;;4.17;3.10;;;16.20;99.90;;;;;;5121321;28;20936;-62
2023/08/14 03:42:53;;;;;;;8.97;5.20;;;16.20;99.90;;;;;;5121766;28;20171;-62
2023/08/14 03:45:18;;;;;;;4.10;3.70;;;16.20;99.90;;;;;;5112204;28;20903;-62
2023/08/14 03:47:44;;;;;;;5.17;3.23;;;16.30;99.90;;;;;;5100910;28;20207;-62
2023/08/14 03:50:10;;;;;;;5.53;4.07;;;16.20;99.90;;;;;;5100420;28;20184;-62
2023/08/14 03:52:35;;;;;;;3.43;3.13;;;16.00;99.90;;;;;;5100888;28;20222;-62
2023/08/14 03:55:01;;;;;;;4.07;3.03;;;16.00;99.90;;;;;;5100523;28;20204;-61
2023/08/14 03:57:27;;;;;;;6.70;3.37;;;16.00;99.90;;;;;;5099947;28;20195;-62
2023/08/14 03:59:52;;;;;;;4.60;3.43;;;16.00;99.90;;;;;;5100502;28;20188;-62
2023/08/14 04:02:18;;;;;;;5.70;3.43;;;16.10;99.90;;;;;;5100246;28;20250;-62
2023/08/14 04:04:44;;;;;;;4.03;3.50;;;16.10;99.90;;;;;;5100843;28;20607;-62
2023/08/14 04:07:10;;;;;;;6.23;3.83;;;16.10;99.90;;;;;;5099948;28;20286;-62
2023/08/14 04:09:35;;;;;;;5.53;3.30;;;16.10;99.90;;;;;;5100363;28;20695;-62
2023/08/14 04:12:02;;;;;;;4.70;3.37;;;16.10;99.90;;;;;;5097974;28;20890;-62
2023/08/14 04:14:28;;;;;;;5.27;3.63;;;16.10;99.90;;;;;;5099639;28;20180;-62
2023/08/14 04:16:54;;;;;;;6.20;3.53;;;16.10;99.90;;;;;;5099774;28;20416;-63
2023/08/14 04:19:20;;;;;;;6.50;3.63;;;16.00;99.90;;;;;;5099509;28;20417;-62
2023/08/14 04:21:46;;;;;;;6.17;3.40;;;15.90;99.90;;;;;;5100609;28;20176;-62
2023/08/14 04:24:12;;;;;;;3.97;3.33;;;15.80;99.90;;;;;;5101723;28;20410;-63
2023/08/14 04:26:38;;;;;;;4.30;3.43;;;15.70;99.90;;;;;;5103337;28;20463;-62
2023/08/14 04:29:08;;;;;;;6.63;3.40;;;15.60;99.90;;;;;;5113180;27;20420;-62
2023/08/14 04:31:35;;;;;;;5.63;2.93;;;15.50;99.90;;;;;;5116766;27;20781;-63
2023/08/14 04:34:01;;;;;;;6.37;3.67;;;15.50;99.90;;;;;;5104560;28;20428;-62
2023/08/14 04:36:27;;;;;;;5.83;3.60;;;15.50;99.90;;;;;;5102721;28;20440;-62
2023/08/14 04:38:52;;;;;;;6.50;3.70;;;15.50;99.90;;;;;;5104165;28;20426;-61
2023/08/14 04:41:18;;;;;;;3.90;3.50;;;15.60;99.90;;;;;;5103589;28;20175;-61
2023/08/14 04:43:43;;;;;;;7.10;4.10;;;15.60;99.90;;;;;;5104307;28;20187;-62
2023/08/14 04:46:11;;;;;;;5.57;4.30;;;15.60;99.90;;;;;;5103702;28;20711;-61
2023/08/14 04:48:39;;;;;;;4.43;4.03;;;15.60;99.90;;;;;;5103347;28;20227;-62
2023/08/14 04:51:06;;;;;;;5.17;3.63;;;15.70;99.90;;;;;;5104341;28;20448;-62
2023/08/14 04:53:31;;;;;;;6.10;4.10;;;15.70;99.90;;;;;;5103121;28;20424;-62
2023/08/14 04:55:57;;;;;;;4.30;3.83;;;15.70;99.90;;;;;;5102875;28;20413;-62
2023/08/14 04:58:23;;;;;;;6.10;4.70;;;15.80;99.90;;;;;;5102793;28;20237;-61
2023/08/14 05:00:48;;;;;;;5.80;4.07;;;15.70;99.90;;;;;;5103910;28;20174;-62
2023/08/14 05:03:14;;;;;;;4.17;3.50;;;15.90;99.90;;;;;;5104157;28;20187;-61
2023/08/14 05:05:40;;;;;;;7.70;4.30;;;16.00;99.90;;;;;;5103389;28;20241;-62
2023/08/14 05:08:05;;;;;;;5.83;3.70;;;16.00;99.90;;;;;;5102946;28;20249;-62
2023/08/14 05:10:32;;;;;;;6.03;3.87;;;16.10;99.90;;;;;;5102839;28;20207;-61
2023/08/14 05:12:58;;;;;;;8.27;3.73;;;16.10;99.90;;;;;;5103503;28;20163;-61
2023/08/14 05:15:24;;;;;;;6.00;4.20;;;16.10;99.90;;;;;;5099559;28;20421;-62
2023/08/14 05:17:49;;;;;;;5.20;3.67;;;16.20;99.90;;;;;;5073983;28;20943;-62
2023/08/14 05:20:16;;;;;;;6.20;3.83;;;16.30;99.90;;;;;;5099550;28;20199;-61
2023/08/14 05:22:43;;;;;;;4.70;3.50;;;16.40;99.90;;;;;;5102621;28;20866;-62
2023/08/14 05:25:10;;;;;;;7.40;4.17;;;16.50;99.90;;;;;;5092347;28;20433;-62
2023/08/14 05:27:38;;;;;;;7.43;3.63;;;16.60;99.90;;;;;;5082934;28;20499;-62
2023/08/14 05:30:05;;;;;;;7.23;4.50;;;16.70;99.90;;;;;;5093593;27;20418;-63
2023/08/14 05:32:31;;;;;;;7.60;4.63;;;16.80;99.90;;;;;;5085171;28;20431;-62
2023/08/14 05:34:57;;;;;;;4.70;4.00;;;17.00;99.90;;;;;;5082805;28;21261;-63
2023/08/14 05:37:22;;;;;;;6.00;3.80;;;17.00;99.90;;;;;;5081005;28;20207;-63
2023/08/14 05:39:48;;;;;;;7.43;3.50;;;17.00;99.90;;;;;;5082451;28;20169;-63
2023/08/14 05:42:15;;;;;;;6.77;3.77;;;17.10;99.90;;;;;;5082630;28;20181;-62
2023/08/14 05:44:41;;;;;;;8.10;4.00;;;17.20;99.90;;;;;;5084965;28;20254;-63
2023/08/14 05:47:06;;;;;;;7.97;3.60;;;17.20;99.90;;;;;;5102207;28;20544;-63
2023/08/14 05:49:32;;;;;;;10.87;3.97;;;17.30;99.90;;;;;;5102216;28;20916;-62
2023/08/14 05:51:58;;;;;;;3.33;2.80;;;17.30;99.90;;;;;;5101553;28;20211;-63
2023/08/14 05:54:23;;;;;;;3.17;2.70;;;17.40;99.90;;;;;;5102152;28;20265;-62
2023/08/14 05:56:50;;;;;;;4.93;3.50;;;17.60;99.90;;;;;;5101689;28;20180;-62
2023/08/14 05:59:16;;;;;;;5.70;4.20;;;17.70;99.90;;;;;;5102365;28;20647;-62
2023/08/14 06:01:42;;;;;;;7.07;4.23;;;17.90;99.90;;;;;;5101811;28;20417;-63
2023/08/14 06:04:07;;;;;;;5.73;3.60;;;18.10;99.90;;;;;;5084660;28;20856;-62
2023/08/14 06:06:33;;;;;;;3.63;3.30;;;18.30;99.90;;;;;;5100374;28;20179;-63
2023/08/14 06:09:00;;;;;;;5.70;3.73;;;18.50;99.90;;;;;;5102859;28;20254;-62
2023/08/14 06:11:25;;;;;;;7.60;3.80;;;18.60;99.90;;;;;;5102695;28;20689;-62
2023/08/14 06:13:51;;;;;;;5.73;3.63;;;18.70;99.90;;;;;;5103893;28;20413;-62
2023/08/14 06:16:17;;;;;;;8.47;4.13;;;18.80;99.90;;;;;;5095021;28;20184;-63
2023/08/14 06:18:42;;;;;;;9.03;3.93;;;18.90;99.90;;;;;;5101122;28;20240;-62
2023/08/14 06:21:08;;;;;;;7.43;3.93;;;19.00;99.90;;;;;;5103218;28;20209;-63
2023/08/14 06:23:34;;;;;;;5.80;3.57;;;19.00;99.90;;;;;;5101633;28;20183;-63
2023/08/14 06:25:59;;;;;;;5.20;3.27;;;19.10;99.90;;;;;;5101846;28;20291;-63
2023/08/14 06:28:25;;;;;;;5.70;3.13;;;19.10;99.90;;;;;;5103672;28;20254;-63
2023/08/14 06:30:51;;;;;;;9.47;3.40;;;19.00;99.90;;;;;;5092828;28;20203;-63
2023/08/14 06:33:16;;;;;;;7.00;3.57;;;19.10;99.90;;;;;;5092702;28;20180;-63
2023/08/14 06:35:42;;;;;;;5.53;3.73;;;19.10;99.90;;;;;;5093177;28;20191;-63
2023/08/14 06:38:08;;;;;;;4.40;3.50;;;19.20;99.90;;;;;;5096314;28;20185;-63
2023/08/14 06:40:33;;;;;;;6.23;3.57;;;19.20;99.90;;;;;;5092494;28;20226;-62
2023/08/14 06:42:59;;;;;;;5.20;3.47;;;19.40;99.90;;;;;;5091696;28;20218;-62
2023/08/14 06:45:25;;;;;;;4.43;2.73;;;19.50;99.90;;;;;;5095207;28;20173;-63
2023/08/14 06:47:50;;;;;;;4.60;3.40;;;19.70;99.90;;;;;;5090681;28;20689;-63
2023/08/14 06:50:16;;;;;;;5.27;3.30;;;19.70;99.90;;;;;;5091803;28;20176;-63
2023/08/14 06:52:42;;;;;;;6.00;3.63;;;19.80;99.90;;;;;;5096908;28;20219;-62
2023/08/14 06:55:08;;;;;;;5.80;3.50;;;19.80;99.90;;;;;;5091048;28;20426;-63
2023/08/14 06:57:34;;;;;;;7.80;3.33;;;19.80;99.90;;;;;;5083014;28;20195;-63
2023/08/14 07:00:06;;;;;;;7.33;3.60;;;19.80;99.90;;;;;;5082559;28;20702;-63
2023/08/14 07:02:32;;;;;;;3.83;3.40;;;19.90;99.90;;;;;;5083835;28;20180;-62
2023/08/14 07:04:58;;;;;;;4.50;3.00;;;19.90;99.90;;;;;;5082756;28;20636;-63
2023/08/14 07:07:23;;;;;;;6.20;3.53;;;20.00;99.90;;;;;;5083119;28;20567;-62
2023/08/14 07:09:49;;;;;;;4.53;3.60;;;20.10;99.90;;;;;;5082983;28;20214;-62
2023/08/14 07:12:15;;;;;;;4.43;3.40;;;20.20;99.90;;;;;;5083709;28;20264;-63
2023/08/14 07:14:40;;;;;;;4.37;3.27;;;20.30;99.90;;;;;;5082950;28;20176;-63
2023/08/14 07:17:06;;;;;;;6.87;3.90;;;20.30;99.90;;;;;;5082592;28;20191;-63
2023/08/14 07:19:32;;;;;;;4.53;3.40;;;20.40;99.90;;;;;;5092149;28;20656;-63
2023/08/14 07:21:57;;;;;;;4.63;3.13;;;20.50;99.90;;;;;;5103162;28;20190;-63
2023/08/14 07:24:24;;;;;;;3.50;3.00;;;20.50;99.90;;;;;;5103561;28;20199;-63
2023/08/14 07:26:49;;;;;;;8.70;3.77;;;20.50;99.90;;;;;;5102107;28;21006;-63
2023/08/14 07:29:15;;;;;;;6.53;3.03;;;20.50;99.90;;;;;;5113976;28;20506;-63
2023/08/14 07:31:41;;;;;;;4.50;3.23;;;20.50;99.90;;;;;;5123955;28;20175;-62
2023/08/14 07:34:06;;;;;;;6.33;2.83;;;20.50;99.90;;;;;;5124217;28;20840;-63
2023/08/14 07:36:32;;;;;;;4.50;3.20;;;20.50;99.90;;;;;;5122923;28;20195;-63
2023/08/14 07:38:58;;;;;;;10.03;3.30;;;20.50;99.90;;;;;;5123679;28;20175;-63
2023/08/14 07:41:23;;;;;;;3.30;2.90;;;20.50;99.90;;;;;;5123988;28;20246;-63
2023/08/14 07:43:49;;;;;;;6.70;3.27;;;20.50;99.90;;;;;;5122669;28;20215;-63
2023/08/14 07:46:15;;;;;;;5.60;2.97;;;20.40;99.90;;;;;;5104960;28;21086;-63
2023/08/14 07:48:40;;;;;;;4.63;2.80;;;20.30;99.90;;;;;;5100322;28;20211;-63
2023/08/14 07:51:06;;;;;;;3.80;3.00;;;20.30;99.90;;;;;;5101620;28;20601;-63
2023/08/14 07:53:32;;;;;;;5.80;3.10;;;20.20;99.90;;;;;;5103448;28;20176;-62
2023/08/14 07:55:57;;;;;;;6.47;4.00;;;20.30;99.90;;;;;;5102464;28;20184;-62
2023/08/14 07:58:23;;;;;;;9.20;4.73;;;20.30;99.90;;;;;;5102860;28;20179;-63
2023/08/14 08:00:49;;;;;;;7.00;3.60;;;20.30;99.90;;;;;;5088882;28;20640;-62
2023/08/14 08:03:14;;;;;;;8.43;4.20;;;20.30;99.90;;;;;;5087182;28;20211;-62
2023/08/14 08:05:40;;;;;;;7.87;3.20;;;20.30;99.90;;;;;;5092073;28;20645;-63
2023/08/14 08:08:06;;;;;;;4.90;3.60;;;20.40;99.90;;;;;;5088275;28;20211;-62
2023/08/14 08:10:32;;;;;;;6.50;3.10;;;20.40;99.90;;;;;;5102623;28;20642;-63
2023/08/14 08:12:57;;;;;;;7.10;3.50;;;20.40;99.90;;;;;;5104260;28;20963;-62
2023/08/14 08:15:23;;;;;;;6.37;3.53;;;20.40;99.90;;;;;;5100576;28;21022;-62
2023/08/14 08:17:49;;;;;;;4.60;3.20;;;20.50;99.90;;;;;;5085574;28;20184;-61
2023/08/14 08:20:15;;;;;;;8.80;3.57;;;20.60;99.90;;;;;;5086400;28;20217;-63
2023/08/14 08:22:40;;;;;;;5.43;3.30;;;20.70;99.90;;;;;;5086345;28;20517;-63
2023/08/14 08:25:07;;;;;;;2.80;2.50;;;20.80;99.90;;;;;;5085800;28;20614;-62
2023/08/14 08:27:35;;;;;;;7.73;3.30;;;20.80;99.90;;;;;;5086015;28;20215;-62
2023/08/14 08:30:02;;;;;;;6.27;3.57;;;20.90;99.90;;;;;;5119092;27;20476;-63
2023/08/14 08:32:27;;;;;;;6.40;3.00;;;20.90;99.90;;;;;;5126341;27;20420;-62
2023/08/14 08:34:54;;;;;;;4.83;3.37;;;20.90;99.90;;;;;;5126813;27;20511;-62
2023/08/14 08:37:20;;;;;;;3.83;2.80;;;20.90;99.90;;;;;;5126397;27;20190;-62
2023/08/14 08:39:46;;;;;;;7.30;3.13;;;20.90;99.90;;;;;;5127430;27;21030;-63
2023/08/14 08:42:12;;;;;;;5.77;2.93;;;20.90;99.90;;;;;;5126471;27;20251;-64
2023/08/14 08:44:43;;;;;;;4.33;2.73;;;20.90;99.90;;;;;;5124588;27;20183;-62
2023/08/14 08:47:13;;;;;;;5.90;3.07;;;21.00;99.90;;;;;;5105119;28;20974;-62
2023/08/14 08:49:40;;;;;;;6.10;3.00;;;21.00;99.90;;;;;;5106843;28;20495;-62
2023/08/14 08:52:06;;;;;;;7.37;4.27;;;21.10;99.90;;;;;;5087332;28;20418;-62
2023/08/14 08:54:33;;;;;;;7.17;3.50;;;21.10;99.90;;;;;;5106815;28;20423;-62
2023/08/14 08:56:59;;;;;;;7.70;3.53;;;21.20;99.90;;;;;;5104978;28;20448;-62
2023/08/14 08:59:26;;;;;;;7.80;3.10;;;21.30;99.90;;;;;;5105890;28;20437;-63
2023/08/14 09:01:53;;;;;;;5.23;3.27;;;21.30;99.90;;;;;;5105069;28;20424;-63
2023/08/14 09:04:19;;;;;;;6.70;2.93;;;21.40;99.90;;;;;;5105685;28;20570;-63
2023/08/14 09:06:45;;;;;;;5.67;2.87;;;21.50;99.90;;;;;;5105363;28;22866;-63
2023/08/14 09:09:13;;;;;;;3.60;2.40;;;21.50;99.90;;;;;;5104973;28;20180;-63
2023/08/14 09:11:39;;;;;;;6.30;3.20;;;21.60;99.90;;;;;;5085661;28;20421;-63
2023/08/14 09:14:05;;;;;;;4.40;2.53;;;21.70;99.90;;;;;;5105253;28;20428;-63
2023/08/14 09:16:31;;;;;;;6.20;2.90;;;21.80;99.90;;;;;;5102664;28;20422;-63
2023/08/14 09:18:58;;;;;;;8.30;3.30;;;21.90;99.90;;;;;;5103369;28;21170;-63
2023/08/14 09:21:25;;;;;;;4.30;2.73;;;22.00;99.90;;;;;;5103227;28;20181;-63
2023/08/14 09:23:52;;;;;;;4.17;2.57;;;22.10;99.90;;;;;;5103531;28;20422;-63
2023/08/14 09:26:18;;;;;;;5.30;2.60;;;22.20;99.90;;;;;;5101765;28;20430;-63
2023/08/14 09:28:44;;;;;;;6.27;2.80;;;22.30;99.90;;;;;;5108644;27;20464;-63
2023/08/14 09:31:12;;;;;;;3.70;2.73;;;22.40;99.90;;;;;;5122534;27;20412;-63
2023/08/14 09:33:43;;;;;;;4.17;3.10;;;22.60;99.90;;;;;;5123920;27;20417;-63
2023/08/14 09:36:09;;;;;;;4.30;3.20;;;22.70;99.90;;;;;;5122582;27;20439;-63
2023/08/14 09:38:36;;;;;;;5.10;2.80;;;22.80;99.90;;;;;;5123449;27;20849;-63
2023/08/14 09:41:02;;;;;;;7.90;3.20;;;22.90;99.90;;;;;;5123679;27;20440;-63
2023/08/14 09:43:30;;;;;;;3.93;2.80;;;23.00;99.90;;;;;;5123196;27;20516;-63
2023/08/14 09:45:58;;;;;;;5.00;2.90;;;23.20;99.90;;;;;;5109900;27;20271;-63
2023/08/14 09:48:39;;;;;;;5.00;3.23;;;23.40;99.90;;;;;;5101093;28;20465;-63
2023/08/14 09:51:08;;;;;;;7.93;2.83;;;23.50;99.90;;;;;;5102321;28;20505;-63
2023/08/14 09:53:56;;;;;;;4.07;2.50;;;23.60;99.90;;;;;;5102901;28;20497;-63
2023/08/14 09:56:22;;;;;;;4.90;2.87;;;23.70;99.90;;;;;;5101576;28;20424;-63
2023/08/14 09:58:49;;;;;;;7.63;2.63;;;23.80;99.90;;;;;;5101629;28;20461;-63
2023/08/14 10:01:19;;;;;;;3.77;2.67;;;24.00;99.90;;;;;;5102389;28;20421;-62
2023/08/14 10:03:49;;;;;;;2.90;2.40;;;24.00;99.90;;;;;;5102593;28;20425;-63
2023/08/14 10:06:16;;;;;;;3.40;2.43;;;24.10;99.90;;;;;;5102175;28;20417;-62
2023/08/14 10:08:44;;;;;;;6.90;2.53;;;24.20;99.90;;;;;;5101538;28;20526;-63
2023/08/14 10:11:16;;;;;;;5.97;2.27;;;24.30;99.90;;;;;;5101617;28;20445;-63
2023/08/14 10:14:04;;;;;;;5.10;2.80;;;24.40;99.90;;;;;;5102491;28;20528;-63
2023/08/14 10:16:40;;;;;;;3.40;2.10;;;24.40;99.90;;;;;;5100564;28;20446;-63
2023/08/14 10:19:12;;;;;;;4.93;2.80;;;24.50;99.90;;;;;;5102549;28;20931;-63
2023/08/14 10:21:40;;;;;;;5.67;2.37;;;24.50;99.90;;;;;;5102008;28;20491;-62
2023/08/14 10:24:06;;;;;;;6.80;3.13;;;24.60;99.90;;;;;;5102483;28;20460;-63
2023/08/14 10:26:33;;;;;;;4.77;2.40;;;24.70;99.90;;;;;;5100542;28;20429;-63
2023/08/14 10:29:00;;;;;;;3.17;2.87;;;24.70;99.90;;;;;;5102379;28;20483;-63
2023/08/14 10:31:30;;;;;;;7.50;2.37;;;24.80;99.90;;;;;;5097320;28;20433;-63
2023/08/14 10:33:58;;;;;;;4.43;2.93;;;24.90;99.90;;;;;;5101629;28;20434;-63
2023/08/14 10:36:30;;;;;;;2.70;2.30;;;24.90;99.90;;;;;;5099548;28;20447;-62
2023/08/14 10:39:06;;;;;;;6.63;2.80;;;24.90;99.90;;;;;;5089592;28;20939;-63
2023/08/14 10:41:36;;;;;;;2.57;2.27;;;25.00;99.90;;;;;;5095926;28;20442;-63
2023/08/14 10:44:06;;;;;;;5.30;2.90;;;25.10;99.90;;;;;;5101508;28;20441;-63
2023/08/14 10:46:36;;;;;;;4.17;2.60;;;25.20;99.90;;;;;;5099457;28;20468;-63
2023/08/14 10:49:02;;;;;;;3.90;2.53;;;25.30;99.90;;;;;;5101002;28;20519;-63
2023/08/14 10:51:31;;;;;;;4.40;2.73;;;25.40;99.90;;;;;;5100364;28;20521;-62
2023/08/14 10:54:14;;;;;;;3.40;2.30;;;25.40;99.90;;;;;;5101137;28;20179;-63
2023/08/14 10:56:48;;;;;;;5.23;2.60;;;25.50;99.90;;;;;;5099255;28;20428;-63
2023/08/14 10:59:28;;;;;;;4.13;2.97;;;25.50;99.90;;;;;;5100694;28;20980;-63
2023/08/14 11:02:09;;;;;;;4.47;2.20;;;25.40;99.90;;;;;;5101747;28;20439;-63
2023/08/14 11:04:39;;;;;;;6.80;2.77;;;25.40;99.90;;;;;;5100232;28;20474;-63
2023/08/14 11:07:11;;;;;;;5.13;2.73;;;25.20;99.90;;;;;;5097818;28;20538;-63
2023/08/14 11:09:38;;;;;;;5.93;2.60;;;25.10;99.90;;;;;;5100551;28;20429;-63
2023/08/14 11:12:07;;;;;;;3.47;2.50;;;24.90;99.90;;;;;;5099826;28;20434;-63
2023/08/14 11:14:40;;;;;;;4.00;2.60;;;24.70;99.90;;;;;;5099946;28;20433;-63
2023/08/14 11:17:08;;;;;;;6.43;2.80;;;24.70;99.90;;;;;;5100199;28;20430;-63
2023/08/14 11:19:35;;;;;;;4.37;2.43;;;24.60;99.90;;;;;;5100600;28;20525;-62
2023/08/14 11:22:01;;;;;;;4.67;2.70;;;24.70;99.90;;;;;;5100978;28;20434;-63
2023/08/14 11:24:26;;;;;;;3.00;2.30;;;24.80;99.90;;;;;;5101319;28;20429;-63
2023/08/14 11:26:53;;;;;;;4.77;2.50;;;25.00;99.90;;;;;;5099262;28;20540;-63
2023/08/14 11:29:19;;;;;;;4.77;3.23;;;25.00;99.90;;;;;;5103597;27;20262;-63
2023/08/14 11:31:45;;;;;;;4.93;2.73;;;25.10;99.90;;;;;;5100093;28;20428;-63
2023/08/14 11:34:10;;;;;;;5.40;2.70;;;25.10;99.90;;;;;;5103702;28;20612;-63
2023/08/14 11:36:40;;;;;;;4.60;2.30;;;25.10;99.90;;;;;;5105567;28;20437;-63
2023/08/14 11:39:06;;;;;;;3.63;2.20;;;25.10;99.90;;;;;;5107980;28;20200;-63
2023/08/14 11:41:35;;;;;;;6.60;2.80;;;25.10;99.90;;;;;;5106962;28;21100;-61
2023/08/14 11:44:01;;;;;;;3.70;2.50;;;25.10;99.90;;;;;;5107807;28;20179;-63
2023/08/14 11:46:27;;;;;;;5.67;3.60;;;25.10;99.90;;;;;;5083601;28;20797;-63
2023/08/14 11:48:52;;;;;;;4.73;2.37;;;25.10;99.90;;;;;;5106596;28;20472;-63
2023/08/14 11:51:18;;;;;;;7.60;2.50;;;25.20;99.90;;;;;;5107130;28;20194;-63
2023/08/14 11:53:45;;;;;;;6.87;2.60;;;25.20;99.90;;;;;;5106784;28;20179;-63
2023/08/14 11:56:10;;;;;;;4.60;2.47;;;25.30;99.90;;;;;;5107161;28;20428;-63
2023/08/14 11:58:39;;;;;;;2.97;2.50;;;25.30;99.90;;;;;;5104904;28;21138;-63
2023/08/14 12:01:05;;;;;;;4.83;2.77;;;25.40;99.90;;;;;;5107367;28;20624;-63
2023/08/14 12:03:31;;;;;;;5.23;3.07;;;25.50;99.90;;;;;;5107351;28;20429;-63
2023/08/14 12:06:02;;;;;;;6.87;2.73;;;25.50;99.90;;;;;;5106205;28;20311;-63
2023/08/14 12:08:29;;;;;;;4.40;2.80;;;25.50;99.90;;;;;;5098566;28;20211;-63
2023/08/14 12:10:55;;;;;;;5.20;2.83;;;25.50;99.90;;;;;;5106467;28;20430;-63
2023/08/14 12:13:21;;;;;;;4.03;2.60;;;25.50;99.90;;;;;;5105893;28;20429;-63
2023/08/14 12:15:47;;;;;;;5.87;3.53;;;25.60;99.90;;;;;;5106027;28;20440;-63
2023/08/14 12:18:20;;;;;;;4.93;2.70;;;25.60;99.90;;;;;;5106613;28;20190;-63
2023/08/14 12:20:54;;;;;;;7.97;3.40;;;25.70;99.90;;;;;;5106676;28;20637;-62
2023/08/14 12:23:24;;;;;;;3.83;2.80;;;25.70;99.90;;;;;;5106911;28;20433;-63
2023/08/14 12:25:53;;;;;;;6.23;3.47;;;25.80;99.90;;;;;;5106101;28;20438;-63
2023/08/14 12:28:20;;;;;;;3.93;2.90;;;25.90;99.90;;;;;;5108854;27;21127;-63
2023/08/14 12:30:48;;;;;;;4.17;3.10;;;25.90;99.90;;;;;;5109197;27;20425;-62
2023/08/14 12:33:14;;;;;;;5.03;3.10;;;26.00;99.90;;;;;;5106809;28;20540;-63
2023/08/14 12:35:40;;;;;;;4.90;3.53;;;26.00;99.90;;;;;;5106400;28;20435;-63
2023/08/14 12:38:05;;;;;;;4.93;2.90;;;26.00;99.90;;;;;;5106262;28;20429;-63
2023/08/14 12:40:32;;;;;;;7.30;2.97;;;26.00;99.90;;;;;;5088681;28;20202;-63
2023/08/14 12:42:58;;;;;;;6.60;3.30;;;26.00;99.90;;;;;;5102515;28;20179;-63
2023/08/14 12:45:23;;;;;;;5.13;3.07;;;26.10;99.90;;;;;;5100644;28;20428;-63